sim
Sign-in with your pilot id or email,
or register
Callsign
Passwort

Schedule Details

Flight Number: DLH2181
Departure: Paderborn Lippstadt Airport (EDLP) at 19:35
Arrival: Munich Airport (EDDM) at 20:35
Route: Lufthansa Passenger Schedule. Enter filed route here before submitting Pirep.

Weather Information
Getting current METAR information for EDLP 280850Z 15006KT 9999 BKN049 12/07 Q1009
Getting current METAR information for EDDM 280850Z VRB01KT 9999 -RA FEW005 BKN045 07/06 Q1011 NOSIG

Schedule Frequency

Route Map